Time;durP1;ratioP1;P1;durP2;ratioP2;P2;SDS_P1;SDS_P2;PMS_P1;PMS_P2;Temp;Humidity;BMP_temperature;BMP_pressure;BME280_temperature;BME280_humidity;BME280_pressure;Samples;Min_cycle;Max_cycle;Signal;HPM_P1;HPM_P2
2022/07/09 00:01:45;;;;;;;;;;;487.20;2380.80;;;;;;5090513;28;19964;-57
2022/07/09 00:04:10;;;;;;;;;;;487.20;2380.80;;;;;;5090267;28;20271;-57
2022/07/09 00:06:36;;;;;;;;;;;487.20;2380.80;;;;;;5090317;28;19919;-58
2022/07/09 00:09:01;;;;;;;;;;;487.30;2380.80;;;;;;5090295;28;20364;-57
2022/07/09 00:11:27;;;;;;;;;;;487.30;2380.80;;;;;;5090466;28;19913;-57
2022/07/09 00:13:52;;;;;;;;;;;487.30;2380.80;;;;;;5090317;28;19955;-58
2022/07/09 00:16:18;;;;;;;;;;;487.30;2380.80;;;;;;5090324;28;19912;-58
2022/07/09 00:18:43;;;;;;;;;;;487.10;2380.80;;;;;;5090226;28;19991;-58
2022/07/09 00:21:09;;;;;;;;;;;487.30;2380.80;;;;;;5090075;28;19965;-58
2022/07/09 00:23:35;;;;;;;;;;;487.20;2380.80;;;;;;5090561;28;19912;-58
2022/07/09 00:26:00;;;;;;;;;;;487.20;2380.80;;;;;;5090028;28;20286;-57
2022/07/09 00:28:26;;;;;;;;;;;487.30;2380.80;;;;;;5090410;28;19908;-57
2022/07/09 00:30:51;;;;;;;;;;;487.20;2380.80;;;;;;5089986;28;19908;-58
2022/07/09 00:33:17;;;;;;;;;;;487.30;2380.80;;;;;;5090215;28;19915;-57
2022/07/09 00:35:42;;;;;;;;;;;487.30;2380.80;;;;;;5090058;28;19994;-58
2022/07/09 00:38:08;;;;;;;;;;;487.20;2380.80;;;;;;5090090;28;20302;-59
2022/07/09 00:40:34;;;;;;;;;;;487.10;2380.80;;;;;;5090285;28;20007;-59
2022/07/09 00:43:00;;;;;;;;;;;487.10;2380.80;;;;;;5093125;28;20269;-57
2022/07/09 00:45:26;;;;;;;;;;;487.10;2380.80;;;;;;5093799;28;19916;-57
2022/07/09 00:47:51;;;;;;;;;;;487.00;2380.80;;;;;;5093520;28;20310;-59
2022/07/09 00:50:17;;;;;;;;;;;487.00;2380.80;;;;;;5093587;28;19912;-57
2022/07/09 00:52:43;;;;;;;;;;;487.00;2380.80;;;;;;5093692;28;20317;-59
2022/07/09 00:55:09;;;;;;;;;;;487.00;2380.80;;;;;;5093911;28;20354;-57
2022/07/09 00:57:35;;;;;;;;;;;487.00;2380.80;;;;;;5093711;28;19920;-59
2022/07/09 01:00:01;;;;;;;;;;;487.00;2380.80;;;;;;5093378;28;19916;-59
2022/07/09 01:02:26;;;;;;;;;;;487.00;2380.80;;;;;;5093675;28;20251;-59
2022/07/09 01:04:52;;;;;;;;;;;486.90;2380.80;;;;;;5093065;28;19938;-59
2022/07/09 01:07:18;;;;;;;;;;;486.80;2380.80;;;;;;5093375;28;19912;-57
2022/07/09 01:09:43;;;;;;;;;;;486.80;2380.80;;;;;;5093333;28;20350;-57
2022/07/09 01:12:09;;;;;;;;;;;486.80;2380.80;;;;;;5093120;28;19909;-59
2022/07/09 01:14:35;;;;;;;;;;;486.70;2380.80;;;;;;5093441;28;19924;-59
2022/07/09 01:17:01;;;;;;;;;;;486.70;2380.80;;;;;;5093020;28;20325;-59
2022/07/09 01:19:27;;;;;;;;;;;486.70;2380.80;;;;;;5093190;28;20121;-58
2022/07/09 01:21:53;;;;;;;;;;;486.60;2380.80;;;;;;5092840;28;19908;-57
2022/07/09 01:24:19;;;;;;;;;;;486.60;2380.80;;;;;;5093120;28;20288;-58
2022/07/09 01:26:44;;;;;;;;;;;486.60;2380.80;;;;;;5092908;28;19919;-59
2022/07/09 01:29:10;;;;;;;;;;;486.50;2380.80;;;;;;5093199;28;19908;-58
2022/07/09 01:31:36;;;;;;;;;;;486.50;2380.80;;;;;;5092001;28;20394;-58
2022/07/09 01:34:01;;;;;;;;;;;486.50;2380.80;;;;;;5092823;28;19997;-58
2022/07/09 01:36:27;;;;;;;;;;;486.50;2380.80;;;;;;5092980;28;20373;-58
2022/07/09 01:38:53;;;;;;;;;;;486.50;2380.80;;;;;;5092541;28;19940;-58
2022/07/09 01:41:18;;;;;;;;;;;486.50;2380.80;;;;;;5092615;28;19959;-58
2022/07/09 01:43:44;;;;;;;;;;;486.40;2380.80;;;;;;5092965;28;19969;-59
2022/07/09 01:46:10;;;;;;;;;;;486.40;2380.80;;;;;;5092738;28;19924;-57
2022/07/09 01:48:35;;;;;;;;;;;486.40;2380.80;;;;;;5092912;28;19912;-55
2022/07/09 01:51:01;;;;;;;;;;;486.40;2380.80;;;;;;5092578;28;20419;-57
2022/07/09 01:53:27;;;;;;;;;;;486.40;2380.80;;;;;;5091353;28;19915;-56
2022/07/09 01:55:52;;;;;;;;;;;461.70;2380.80;;;;;;5092489;28;20273;-59
2022/07/09 01:58:18;;;;;;;;;;;486.40;2380.80;;;;;;5092570;28;20473;-57
2022/07/09 02:00:44;;;;;;;;;;;461.70;2380.80;;;;;;5092425;28;20366;-58
2022/07/09 02:03:09;;;;;;;;;;;461.70;2380.80;;;;;;5092154;28;19912;-57
2022/07/09 02:05:35;;;;;;;;;;;486.40;2380.80;;;;;;5092144;28;19917;-58
2022/07/09 02:08:00;;;;;;;;;;;486.40;2380.80;;;;;;5092185;28;19938;-58
2022/07/09 02:10:26;;;;;;;;;;;486.40;2380.80;;;;;;5092154;28;19919;-57
2022/07/09 02:12:52;;;;;;;;;;;461.70;2380.80;;;;;;5092348;28;19935;-58
2022/07/09 02:15:18;;;;;;;;;;;461.70;2380.80;;;;;;5092447;28;20251;-58
2022/07/09 02:17:43;;;;;;;;;;;461.70;2380.80;;;;;;5092203;28;20358;-58
2022/07/09 02:20:09;;;;;;;;;;;461.70;2380.80;;;;;;5091909;28;19915;-57
2022/07/09 02:22:35;;;;;;;;;;;461.50;2380.80;;;;;;5092029;28;19913;-57
2022/07/09 02:25:01;;;;;;;;;;;461.50;2380.80;;;;;;5091693;28;20378;-57
2022/07/09 02:27:26;;;;;;;;;;;461.50;2380.80;;;;;;5091956;28;19943;-58
2022/07/09 02:29:52;;;;;;;;;;;461.50;2380.80;;;;;;5091747;28;19908;-57
2022/07/09 02:32:17;;;;;;;;;;;461.50;2380.80;;;;;;5091961;28;20382;-58
2022/07/09 02:34:43;;;;;;;;;;;461.50;2380.80;;;;;;5091754;28;19908;-56
2022/07/09 02:37:08;;;;;;;;;;;461.40;2380.80;;;;;;5091564;28;19953;-57
2022/07/09 02:39:34;;;;;;;;;;;461.40;2380.80;;;;;;5091780;28;19911;-56
2022/07/09 02:42:00;;;;;;;;;;;461.40;2380.80;;;;;;5091267;28;19912;-56
2022/07/09 02:44:25;;;;;;;;;;;461.40;2380.80;;;;;;5091683;28;19972;-57
2022/07/09 02:46:51;;;;;;;;;;;461.50;2380.80;;;;;;5091369;28;19979;-58
2022/07/09 02:49:16;;;;;;;;;;;461.50;2380.80;;;;;;5091569;28;19999;-56
2022/07/09 02:51:42;;;;;;;;;;;461.40;2380.80;;;;;;5091363;28;20265;-59
2022/07/09 02:54:08;;;;;;;;;;;461.50;2380.80;;;;;;5091462;28;19915;-57
2022/07/09 02:56:34;;;;;;;;;;;461.50;2380.80;;;;;;5091564;28;19997;-58
2022/07/09 02:58:59;;;;;;;;;;;461.50;2380.80;;;;;;5091112;28;19908;-57
2022/07/09 03:01:25;;;;;;;;;;;461.50;2380.80;;;;;;5091215;28;19920;-57
2022/07/09 03:03:50;;;;;;;;;;;461.40;2380.80;;;;;;5090772;28;20276;-58
2022/07/09 03:06:16;;;;;;;;;;;461.40;2380.80;;;;;;5091038;28;19955;-58
2022/07/09 03:08:41;;;;;;;;;;;461.40;2380.80;;;;;;5091016;28;19930;-58
2022/07/09 03:11:07;;;;;;;;;;;461.40;2380.80;;;;;;5091032;28;19916;-57
2022/07/09 03:13:33;;;;;;;;;;;461.40;2380.80;;;;;;5091133;28;19912;-59
2022/07/09 03:15:59;;;;;;;;;;;461.50;2380.80;;;;;;5090755;28;19914;-57
2022/07/09 03:18:24;;;;;;;;;;;461.50;2380.80;;;;;;5091279;28;20003;-58
2022/07/09 03:20:50;;;;;;;;;;;461.50;2380.80;;;;;;5090699;28;20311;-56
2022/07/09 03:23:16;;;;;;;;;;;461.40;2380.80;;;;;;5091077;28;19908;-58
2022/07/09 03:25:42;;;;;;;;;;;461.50;2380.80;;;;;;5090801;28;19941;-58
2022/07/09 03:28:08;;;;;;;;;;;461.40;2380.80;;;;;;5090959;28;19914;-58
2022/07/09 03:30:34;;;;;;;;;;;461.50;2380.80;;;;;;5090806;28;20419;-58
2022/07/09 03:32:59;;;;;;;;;;;461.40;2380.80;;;;;;5090636;28;19909;-58
2022/07/09 03:35:25;;;;;;;;;;;461.40;2380.80;;;;;;5090919;28;19985;-57
2022/07/09 03:37:51;;;;;;;;;;;461.40;2380.80;;;;;;5090771;28;19908;-57
2022/07/09 03:40:16;;;;;;;;;;;461.40;2380.80;;;;;;5090606;28;19912;-57
2022/07/09 03:42:42;;;;;;;;;;;461.40;2380.80;;;;;;5090603;28;19919;-57
2022/07/09 03:45:07;;;;;;;;;;;461.40;2380.80;;;;;;5090680;28;19920;-56
2022/07/09 03:47:33;;;;;;;;;;;461.40;2380.80;;;;;;5090647;28;19908;-58
2022/07/09 03:49:58;;;;;;;;;;;461.40;2380.80;;;;;;5090555;28;20332;-58
2022/07/09 03:52:24;;;;;;;;;;;461.40;2380.80;;;;;;5090411;28;19915;-58
2022/07/09 03:54:50;;;;;;;;;;;461.40;2380.80;;;;;;5090363;28;19908;-57
2022/07/09 03:57:15;;;;;;;;;;;461.50;2380.80;;;;;;5090548;28;19908;-57
2022/07/09 03:59:41;;;;;;;;;;;461.60;2380.80;;;;;;5090222;28;19912;-57
2022/07/09 04:02:07;;;;;;;;;;;461.70;2380.80;;;;;;5090742;28;19916;-57
2022/07/09 04:04:33;;;;;;;;;;;461.70;2380.80;;;;;;5090113;28;20350;-56
2022/07/09 04:06:58;;;;;;;;;;;461.70;2380.80;;;;;;5090363;28;19923;-57
2022/07/09 04:09:24;;;;;;;;;;;486.40;2380.80;;;;;;5090265;28;19994;-58
2022/07/09 04:11:49;;;;;;;;;;;486.40;2380.80;;;;;;5090103;28;19908;-56
2022/07/09 04:14:15;;;;;;;;;;;486.40;2380.80;;;;;;5090396;28;20002;-57
2022/07/09 04:16:41;;;;;;;;;;;486.40;2380.80;;;;;;5091464;28;19912;-57
2022/07/09 04:19:08;;;;;;;;;;;461.70;2380.80;;;;;;5094666;28;19909;-58
2022/07/09 04:21:33;;;;;;;;;;;461.60;2380.80;;;;;;5093969;28;20431;-58
2022/07/09 04:23:59;;;;;;;;;;;461.50;2380.80;;;;;;5094152;28;19950;-55
2022/07/09 04:26:24;;;;;;;;;;;461.40;2380.80;;;;;;5094221;28;19953;-57
2022/07/09 04:28:50;;;;;;;;;;;461.40;2380.80;;;;;;5093934;28;19909;-58
2022/07/09 04:31:19;;;;;;;;;;;461.40;2380.80;;;;;;5094336;28;20255;-57
2022/07/09 04:33:45;;;;;;;;;;;461.30;2380.80;;;;;;5094228;28;19912;-58
2022/07/09 04:36:11;;;;;;;;;;;461.30;2380.80;;;;;;5093826;28;19927;-57
2022/07/09 04:38:36;;;;;;;;;;;461.20;2380.80;;;;;;5094008;28;19991;-56
2022/07/09 04:41:02;;;;;;;;;;;461.10;2380.80;;;;;;5093749;28;19958;-56
2022/07/09 04:43:28;;;;;;;;;;;461.20;2380.80;;;;;;5093987;28;19946;-57
2022/07/09 04:45:54;;;;;;;;;;;461.20;2380.80;;;;;;5093537;28;19916;-58
2022/07/09 04:48:19;;;;;;;;;;;461.10;2380.80;;;;;;5093633;28;19962;-56
2022/07/09 04:50:45;;;;;;;;;;;461.20;2380.80;;;;;;5093738;28;19937;-56
2022/07/09 04:53:10;;;;;;;;;;;461.20;2380.80;;;;;;5093650;28;19908;-58
2022/07/09 04:55:36;;;;;;;;;;;461.20;2380.80;;;;;;5093788;28;19908;-58
2022/07/09 04:58:01;;;;;;;;;;;461.20;2380.80;;;;;;5093507;28;20009;-57
2022/07/09 05:00:27;;;;;;;;;;;461.10;2380.80;;;;;;5093470;28;20381;-57
2022/07/09 05:02:53;;;;;;;;;;;461.20;2380.80;;;;;;5093449;28;19908;-55
2022/07/09 05:05:22;;;;;;;;;;;461.20;2380.80;;;;;;5093241;28;19920;-57
2022/07/09 05:07:47;;;;;;;;;;;461.30;2380.80;;;;;;5093539;28;19908;-58
2022/07/09 05:10:13;;;;;;;;;;;461.20;2380.80;;;;;;5093309;28;20366;-55
2022/07/09 05:12:40;;;;;;;;;;;461.20;2380.80;;;;;;5093334;28;19995;-55
2022/07/09 05:15:05;;;;;;;;;;;461.20;2380.80;;;;;;5093416;28;19912;-55
2022/07/09 05:17:35;;;;;;;;;;;461.20;2380.80;;;;;;5093036;28;19914;-56
2022/07/09 05:20:01;;;;;;;;;;;461.30;2380.80;;;;;;5093117;28;20320;-56
2022/07/09 05:22:26;;;;;;;;;;;461.40;2380.80;;;;;;5093297;28;19908;-55
2022/07/09 05:24:52;;;;;;;;;;;461.40;2380.80;;;;;;5092990;28;20392;-56
2022/07/09 05:27:17;;;;;;;;;;;461.50;2380.80;;;;;;5092849;28;19912;-57
2022/07/09 05:29:43;;;;;;;;;;;461.60;2380.80;;;;;;5092988;28;19953;-57
2022/07/09 05:32:08;;;;;;;;;;;461.70;2380.80;;;;;;5092983;28;19935;-58
2022/07/09 05:34:34;;;;;;;;;;;486.40;2380.80;;;;;;5092991;28;19917;-58
2022/07/09 05:37:00;;;;;;;;;;;486.70;2380.80;;;;;;5092557;28;19912;-57
2022/07/09 05:39:25;;;;;;;;;;;486.70;2380.80;;;;;;5092875;28;19908;-58
2022/07/09 05:41:51;;;;;;;;;;;486.60;2380.80;;;;;;5092457;28;19919;-57
2022/07/09 05:44:16;;;;;;;;;;;486.50;2380.80;;;;;;5092725;28;20003;-57
2022/07/09 05:46:42;;;;;;;;;;;486.60;2380.80;;;;;;5091916;28;19912;-57
2022/07/09 05:49:07;;;;;;;;;;;486.70;2380.80;;;;;;5092711;28;19915;-57
2022/07/09 05:51:33;;;;;;;;;;;486.60;2380.80;;;;;;5092510;28;19908;-57
2022/07/09 05:53:58;;;;;;;;;;;486.50;2380.80;;;;;;5092438;28;20282;-57
2022/07/09 05:56:24;;;;;;;;;;;486.70;2380.80;;;;;;5092575;28;19962;-58
2022/07/09 05:58:50;;;;;;;;;;;486.80;2380.80;;;;;;5092221;28;19908;-58
2022/07/09 06:01:16;;;;;;;;;;;487.00;2380.80;;;;;;5092294;28;19920;-57
2022/07/09 06:03:42;;;;;;;;;;;487.20;2380.80;;;;;;5092301;28;19916;-57
2022/07/09 06:06:08;;;;;;;;;;;487.30;2380.80;;;;;;5092152;28;19963;-57
2022/07/09 06:08:34;;;;;;;;;;;512.10;2380.80;;;;;;5092267;28;19951;-58
2022/07/09 06:11:00;;;;;;;;;;;512.40;2380.80;;;;;;5091864;28;19912;-57
2022/07/09 06:13:26;;;;;;;;;;;512.90;2380.80;;;;;;5092168;28;19920;-56
2022/07/09 06:15:51;;;;;;;;;;;563.20;2432.00;;;;;;5092000;28;19909;-58
2022/07/09 06:18:17;;;;;;;;;;;563.40;2432.00;;;;;;5091951;28;19915;-56
2022/07/09 06:20:43;;;;;;;;;;;563.70;2432.00;;;;;;5092126;28;19943;-58
2022/07/09 06:23:08;;;;;;;;;;;563.50;2432.00;;;;;;5092232;28;20365;-56
2022/07/09 06:25:34;;;;;;;;;;;538.50;2406.40;;;;;;5091943;28;19916;-57
2022/07/09 06:27:59;;;;;;;;;;;537.90;2406.40;;;;;;5091633;28;19908;-58
2022/07/09 06:30:25;;;;;;;;;;;537.90;2406.40;;;;;;5091973;28;19912;-58
2022/07/09 06:32:51;;;;;;;;;;;512.90;2380.80;;;;;;5091524;28;20289;-58
2022/07/09 06:35:17;;;;;;;;;;;512.60;2380.80;;;;;;5091438;28;19915;-57
2022/07/09 06:37:42;;;;;;;;;;;512.20;2380.80;;;;;;5091597;28;20002;-58
2022/07/09 06:40:08;;;;;;;;;;;512.30;2380.80;;;;;;5090952;28;20006;-58
2022/07/09 06:42:34;;;;;;;;;;;512.30;2380.80;;;;;;5091671;28;19912;-56
2022/07/09 06:44:59;;;;;;;;;;;512.20;2380.80;;;;;;5091426;28;19916;-56
2022/07/09 06:47:25;;;;;;;;;;;512.30;2380.80;;;;;;5091558;28;20409;-56
2022/07/09 06:49:51;;;;;;;;;;;512.00;2380.80;;;;;;5091388;28;19908;-57
2022/07/09 06:52:16;;;;;;;;;;;487.20;2380.80;;;;;;5091366;28;19999;-59
2022/07/09 06:54:42;;;;;;;;;;;487.30;2380.80;;;;;;5091449;28;19990;-58
2022/07/09 06:57:09;;;;;;;;;;;512.10;2380.80;;;;;;5091324;28;19912;-57
2022/07/09 06:59:35;;;;;;;;;;;512.20;2380.80;;;;;;5091243;28;19964;-56
2022/07/09 07:02:01;;;;;;;;;;;512.20;2380.80;;;;;;5091150;28;20007;-58
2022/07/09 07:04:26;;;;;;;;;;;512.00;2380.80;;;;;;5091025;28;19916;-58
2022/07/09 07:06:52;;;;;;;;;;;487.10;2380.80;;;;;;5090917;28;19915;-60
2022/07/09 07:09:18;;;;;;;;;;;487.10;2380.80;;;;;;5090989;28;19927;-60
2022/07/09 07:11:50;;;;;;;;;;;487.00;2380.80;;;;;;5090907;28;20006;-58
2022/07/09 07:14:15;;;;;;;;;;;486.80;2380.80;;;;;;5091084;28;19919;-58
2022/07/09 07:16:42;;;;;;;;;;;486.70;2380.80;;;;;;5090932;28;19908;-58
2022/07/09 07:19:07;;;;;;;;;;;486.70;2380.80;;;;;;5091030;28;19999;-57
2022/07/09 07:21:33;;;;;;;;;;;486.50;2380.80;;;;;;5090660;28;19947;-58
2022/07/09 07:23:59;;;;;;;;;;;486.60;2380.80;;;;;;5090773;28;19938;-57
2022/07/09 07:26:24;;;;;;;;;;;486.50;2380.80;;;;;;5090844;28;19920;-56
2022/07/09 07:28:50;;;;;;;;;;;486.40;2380.80;;;;;;5090529;28;19908;-58
2022/07/09 07:31:15;;;;;;;;;;;486.40;2380.80;;;;;;5090965;28;19915;-57
2022/07/09 07:33:41;;;;;;;;;;;486.40;2380.80;;;;;;5090670;28;19915;-58
2022/07/09 07:36:07;;;;;;;;;;;486.40;2380.80;;;;;;5090581;28;20339;-57
2022/07/09 07:38:33;;;;;;;;;;;486.40;2380.80;;;;;;5090602;28;19908;-57
2022/07/09 07:40:59;;;;;;;;;;;461.70;2380.80;;;;;;5090658;28;19919;-56
2022/07/09 07:43:25;;;;;;;;;;;486.40;2380.80;;;;;;5090825;28;19935;-56
2022/07/09 07:45:50;;;;;;;;;;;486.40;2380.80;;;;;;5090338;28;20350;-57
2022/07/09 07:48:16;;;;;;;;;;;486.50;2380.80;;;;;;5090568;28;19908;-55
2022/07/09 07:50:41;;;;;;;;;;;486.40;2380.80;;;;;;5090342;28;20045;-58
2022/07/09 07:53:07;;;;;;;;;;;486.50;2380.80;;;;;;5090413;28;19908;-57
2022/07/09 07:55:33;;;;;;;;;;;486.50;2380.80;;;;;;5090348;28;19908;-56
2022/07/09 07:57:58;;;;;;;;;;;461.70;2380.80;;;;;;5090802;28;19954;-57
2022/07/09 08:00:24;;;;;;;;;;;486.40;2380.80;;;;;;5090264;28;19952;-57
2022/07/09 08:02:50;;;;;;;;;;;486.40;2380.80;;;;;;5090191;28;19908;-56
2022/07/09 08:05:15;;;;;;;;;;;486.40;2380.80;;;;;;5090192;28;20366;-57
2022/07/09 08:07:41;;;;;;;;;;;486.40;2380.80;;;;;;5090444;28;19908;-56
2022/07/09 08:10:06;;;;;;;;;;;486.50;2380.80;;;;;;5090353;28;19931;-58
2022/07/09 08:12:32;;;;;;;;;;;486.50;2380.80;;;;;;5090266;28;19957;-57
2022/07/09 08:14:58;;;;;;;;;;;486.50;2380.80;;;;;;5090456;28;19935;-56
2022/07/09 08:17:24;;;;;;;;;;;486.50;2380.80;;;;;;5090118;28;19908;-57
2022/07/09 08:19:50;;;;;;;;;;;486.50;2380.80;;;;;;5090019;28;19908;-57
2022/07/09 08:22:15;;;;;;;;;;;486.40;2380.80;;;;;;5090244;28;19915;-57
2022/07/09 08:24:41;;;;;;;;;;;486.50;2380.80;;;;;;5090112;28;19919;-56
2022/07/09 08:27:07;;;;;;;;;;;486.50;2380.80;;;;;;5090350;28;19912;-57
2022/07/09 08:29:32;;;;;;;;;;;486.50;2380.80;;;;;;5090115;28;19916;-57
2022/07/09 08:31:58;;;;;;;;;;;486.50;2380.80;;;;;;5090230;28;19997;-57
2022/07/09 08:34:23;;;;;;;;;;;486.50;2380.80;;;;;;5090037;28;20058;-57
2022/07/09 08:36:49;;;;;;;;;;;486.50;2380.80;;;;;;5090076;28;19915;-56
2022/07/09 08:39:15;;;;;;;;;;;486.50;2380.80;;;;;;5090128;28;19961;-56
2022/07/09 08:41:42;;;;;;;;;;;486.50;2380.80;;;;;;5089900;28;19918;-58
2022/07/09 08:44:10;;;;;;;;;;;486.60;2380.80;;;;;;5090142;28;19947;-57
2022/07/09 08:46:36;;;;;;;;;;;486.70;2380.80;;;;;;5090132;28;19916;-57
2022/07/09 08:49:02;;;;;;;;;;;486.70;2380.80;;;;;;5089937;28;19915;-57
2022/07/09 08:51:29;;;;;;;;;;;486.70;2380.80;;;;;;5089946;28;20385;-57
2022/07/09 08:53:55;;;;;;;;;;;486.70;2380.80;;;;;;5089919;28;19904;-56
2022/07/09 08:56:21;;;;;;;;;;;486.70;2380.80;;;;;;5089616;28;19934;-57
2022/07/09 08:58:47;;;;;;;;;;;486.70;2380.80;;;;;;5090079;28;19912;-58
2022/07/09 09:01:13;;;;;;;;;;;486.70;2380.80;;;;;;5088443;28;19927;-57
2022/07/09 09:03:39;;;;;;;;;;;486.80;2380.80;;;;;;5092598;28;20379;-56
2022/07/09 09:06:05;;;;;;;;;;;486.80;2380.80;;;;;;5093490;28;20035;-56
2022/07/09 09:08:34;;;;;;;;;;;486.70;2380.80;;;;;;5093926;28;20002;-56
2022/07/09 09:11:00;;;;;;;;;;;486.80;2380.80;;;;;;5101776;28;19919;-57
2022/07/09 09:13:25;;;;;;;;;;;486.80;2380.80;;;;;;5102937;28;19916;-56
2022/07/09 09:16:03;;;;;;;;;;;486.70;2380.80;;;;;;5102849;28;19938;-56
2022/07/09 09:18:28;;;;;;;;;;;486.80;2380.80;;;;;;5103162;28;20388;-57
2022/07/09 09:20:54;;;;;;;;;;;486.90;2380.80;;;;;;5101417;28;19912;-59
2022/07/09 09:23:19;;;;;;;;;;;486.90;2380.80;;;;;;5101340;28;19915;-56
2022/07/09 09:25:45;;;;;;;;;;;486.90;2380.80;;;;;;5092713;28;19920;-55
2022/07/09 09:28:14;;;;;;;;;;;487.20;2380.80;;;;;;5091767;28;19912;-56
2022/07/09 09:30:41;;;;;;;;;;;512.10;2380.80;;;;;;5091489;28;19914;-57
2022/07/09 09:33:06;;;;;;;;;;;512.60;2380.80;;;;;;5091762;28;19908;-56
2022/07/09 09:35:34;;;;;;;;;;;537.60;2406.40;;;;;;5092890;28;20652;-58
2022/07/09 09:37:59;;;;;;;;;;;537.90;2406.40;;;;;;5091692;28;19912;-56
2022/07/09 09:40:25;;;;;;;;;;;538.20;2406.40;;;;;;5091494;28;20358;-56
2022/07/09 09:42:52;;;;;;;;;;;538.50;2406.40;;;;;;5091398;28;19912;-56
2022/07/09 09:45:18;;;;;;;;;;;563.40;2432.00;;;;;;5091295;28;20160;-58
2022/07/09 09:47:48;;;;;;;;;;;563.50;2432.00;;;;;;5091388;28;20290;-58
2022/07/09 09:50:18;;;;;;;;;;;564.10;2432.00;;;;;;5091081;28;19951;-57
2022/07/09 09:52:45;;;;;;;;;;;589.10;2380.80;;;;;;5088566;28;19915;-57
2022/07/09 09:55:12;;;;;;;;;;;588.90;2329.60;;;;;;5092149;28;19931;-57
2022/07/09 09:57:39;;;;;;;;;;;589.10;2355.20;;;;;;5092668;28;19999;-58
2022/07/09 10:00:05;;;;;;;;;;;614.40;2304.00;;;;;;5092156;28;19920;-57
2022/07/09 10:02:31;;;;;;;;;;;614.80;2278.40;;;;;;5092193;28;19999;-59
2022/07/09 10:04:57;;;;;;;;;;;614.80;2176.00;;;;;;5092277;28;19947;-58
2022/07/09 10:07:22;;;;;;;;;;;615.20;2176.00;;;;;;5091862;28;19915;-58
2022/07/09 10:09:54;;;;;;;;;;;615.30;2176.00;;;;;;5092299;28;19913;-59
2022/07/09 10:12:33;;;;;;;;;;;640.10;2124.80;;;;;;5091771;28;20353;-57
2022/07/09 10:14:59;;;;;;;;;;;615.30;2073.60;;;;;;5091082;28;19916;-57
2022/07/09 10:17:25;;;;;;;;;;;640.50;2048.00;;;;;;5091953;28;19916;-58
2022/07/09 10:19:58;;;;;;;;;;;640.60;2022.40;;;;;;5092038;28;20004;-58
2022/07/09 10:22:36;;;;;;;;;;;640.50;2073.60;;;;;;5091714;28;19965;-59
2022/07/09 10:25:02;;;;;;;;;;;640.60;2048.00;;;;;;5092070;28;19934;-57
2022/07/09 10:27:28;;;;;;;;;;;640.50;2022.40;;;;;;5092189;28;19937;-57
2022/07/09 10:29:57;;;;;;;;;;;640.00;2048.00;;;;;;5091699;28;20348;-57
2022/07/09 10:32:30;;;;;;;;;;;640.00;2048.00;;;;;;5090916;28;20289;-58
2022/07/09 10:34:56;;;;;;;;;;;640.10;2022.40;;;;;;5088602;28;20359;-57
2022/07/09 10:37:41;;;;;;;;;;;640.20;2048.00;;;;;;5090587;28;19915;-58
2022/07/09 10:40:14;;;;;;;;;;;640.40;1996.80;;;;;;5090659;28;20373;-59
2022/07/09 10:42:43;;;;;;;;;;;640.20;2022.40;;;;;;5091524;28;19919;-58
2022/07/09 10:45:18;;;;;;;;;;;640.20;1996.80;;;;;;5091695;28;19922;-57
2022/07/09 10:47:46;;;;;;;;;;;640.40;2022.40;;;;;;5091408;28;19915;-58
2022/07/09 10:50:12;;;;;;;;;;;640.50;2022.40;;;;;;5091515;28;19908;-57
2022/07/09 10:52:38;;;;;;;;;;;640.70;1996.80;;;;;;5091548;28;20482;-57
2022/07/09 10:55:04;;;;;;;;;;;640.70;1996.80;;;;;;5091236;28;19908;-58
2022/07/09 10:57:30;;;;;;;;;;;640.70;1971.20;;;;;;5091198;28;19908;-59
2022/07/09 10:59:56;;;;;;;;;;;640.90;1945.60;;;;;;5091451;28;19912;-59
2022/07/09 11:02:22;;;;;;;;;;;665.70;1971.20;;;;;;5089797;28;20431;-57
2022/07/09 11:04:49;;;;;;;;;;;640.90;1971.20;;;;;;5094324;28;19974;-58
2022/07/09 11:07:24;;;;;;;;;;;640.50;1971.20;;;;;;5094053;28;20265;-59
2022/07/09 11:09:50;;;;;;;;;;;640.50;1996.80;;;;;;5093943;28;20357;-58
2022/07/09 11:12:16;;;;;;;;;;;640.60;1971.20;;;;;;5093733;28;19912;-57
2022/07/09 11:14:43;;;;;;;;;;;640.50;1996.80;;;;;;5094222;28;19913;-58
2022/07/09 11:17:13;;;;;;;;;;;640.90;1945.60;;;;;;5093819;28;19947;-58
2022/07/09 11:19:39;;;;;;;;;;;640.40;1996.80;;;;;;5094319;28;20250;-59
2022/07/09 11:22:05;;;;;;;;;;;640.20;1996.80;;;;;;5093780;28;19915;-57
2022/07/09 11:24:30;;;;;;;;;;;640.40;1996.80;;;;;;5093857;28;19908;-56
2022/07/09 11:27:01;;;;;;;;;;;640.80;1971.20;;;;;;5093692;28;19914;-58
2022/07/09 11:29:26;;;;;;;;;;;665.60;1996.80;;;;;;5093963;28;19942;-58
2022/07/09 11:31:52;;;;;;;;;;;640.50;1996.80;;;;;;5094207;28;19908;-57
2022/07/09 11:34:19;;;;;;;;;;;640.50;1971.20;;;;;;5093838;28;19912;-57
2022/07/09 11:36:46;;;;;;;;;;;640.40;1996.80;;;;;;5094023;28;19908;-57
2022/07/09 11:42:16;;;;;;;;;;;640.20;2022.40;;;;;;5093567;28;19958;-58
2022/07/09 11:44:52;;;;;;;;;;;640.00;2022.40;;;;;;5094150;28;20013;-58
2022/07/09 11:47:21;;;;;;;;;;;615.30;2048.00;;;;;;5093605;28;20368;-59
2022/07/09 11:49:48;;;;;;;;;;;615.10;2048.00;;;;;;5093609;28;19915;-58
2022/07/09 11:52:21;;;;;;;;;;;615.00;2073.60;;;;;;5093553;28;19912;-57
2022/07/09 11:54:57;;;;;;;;;;;615.10;2099.20;;;;;;5093829;28;19908;-58
2022/07/09 11:57:22;;;;;;;;;;;640.20;2048.00;;;;;;5093388;28;19908;-57
2022/07/09 11:59:48;;;;;;;;;;;640.50;2022.40;;;;;;5093527;28;19915;-56
2022/07/09 12:02:23;;;;;;;;;;;640.70;1996.80;;;;;;5093336;28;19912;-58
2022/07/09 12:04:48;;;;;;;;;;;665.70;1996.80;;;;;;5092868;28;19920;-58
2022/07/09 12:07:14;;;;;;;;;;;666.20;1945.60;;;;;;5090404;28;20358;-57
2022/07/09 12:09:40;;;;;;;;;;;666.30;1920.00;;;;;;5090414;28;19915;-58
2022/07/09 12:12:05;;;;;;;;;;;666.10;1920.00;;;;;;5090419;28;19923;-57
2022/07/09 12:14:31;;;;;;;;;;;640.90;1920.00;;;;;;5090063;28;19912;-57
2022/07/09 12:16:57;;;;;;;;;;;640.50;1971.20;;;;;;5090671;28;19931;-56
2022/07/09 12:19:22;;;;;;;;;;;640.60;1996.80;;;;;;5090280;28;19915;-57
2022/07/09 12:21:48;;;;;;;;;;;640.80;1971.20;;;;;;5090452;28;19913;-57
2022/07/09 12:24:14;;;;;;;;;;;665.80;1971.20;;;;;;5090274;28;19908;-60
2022/07/09 12:26:39;;;;;;;;;;;666.10;1945.60;;;;;;5090608;28;19916;-57
2022/07/09 12:29:05;;;;;;;;;;;666.20;1920.00;;;;;;5090705;28;19935;-59
2022/07/09 12:31:32;;;;;;;;;;;666.00;1920.00;;;;;;5090081;28;20392;-58
2022/07/09 12:33:57;;;;;;;;;;;666.10;1920.00;;;;;;5090092;28;19908;-57
2022/07/09 12:36:23;;;;;;;;;;;666.00;1920.00;;;;;;5090370;28;19915;-59
2022/07/09 12:38:49;;;;;;;;;;;666.00;1920.00;;;;;;5093453;28;20442;-58
2022/07/09 12:41:14;;;;;;;;;;;666.40;1894.40;;;;;;5093649;28;20326;-60
2022/07/09 12:43:40;;;;;;;;;;;666.20;1868.80;;;;;;5092542;28;19912;-59
2022/07/09 12:46:06;;;;;;;;;;;666.20;1894.40;;;;;;5092740;28;20026;-58
2022/07/09 12:48:32;;;;;;;;;;;666.20;1894.40;;;;;;5092644;28;20274;-60
2022/07/09 12:50:57;;;;;;;;;;;666.10;1920.00;;;;;;5092666;28;19908;-58
2022/07/09 12:53:23;;;;;;;;;;;665.90;1894.40;;;;;;5092208;28;19915;-57
2022/07/09 12:55:48;;;;;;;;;;;665.80;1920.00;;;;;;5092803;28;20345;-59
2022/07/09 12:58:14;;;;;;;;;;;665.70;1920.00;;;;;;5092341;28;19908;-59
2022/07/09 13:00:39;;;;;;;;;;;665.60;1920.00;;;;;;5092368;28;19924;-59
2022/07/09 13:03:05;;;;;;;;;;;665.80;1920.00;;;;;;5093378;28;19951;-59
2022/07/09 13:05:31;;;;;;;;;;;665.70;1920.00;;;;;;5093291;28;20013;-60
2022/07/09 13:07:57;;;;;;;;;;;640.80;1894.40;;;;;;5093679;28;20434;-58
2022/07/09 13:10:23;;;;;;;;;;;640.50;1945.60;;;;;;5093146;28;19912;-59
2022/07/09 13:12:49;;;;;;;;;;;640.10;1945.60;;;;;;5093595;28;19922;-59
2022/07/09 13:15:20;;;;;;;;;;;615.20;1971.20;;;;;;5093778;28;20003;-58
2022/07/09 13:17:49;;;;;;;;;;;615.00;1996.80;;;;;;5093488;28;19908;-59
2022/07/09 13:20:15;;;;;;;;;;;615.00;1996.80;;;;;;5093362;28;19908;-58
2022/07/09 13:22:40;;;;;;;;;;;615.20;1971.20;;;;;;5093129;28;19908;-58
2022/07/09 13:25:06;;;;;;;;;;;640.40;1945.60;;;;;;5093196;28;19963;-59
2022/07/09 13:27:32;;;;;;;;;;;640.90;1894.40;;;;;;5092957;28;19912;-59
2022/07/09 13:29:57;;;;;;;;;;;665.90;1920.00;;;;;;5093279;28;19908;-59
2022/07/09 13:32:23;;;;;;;;;;;666.20;1894.40;;;;;;5093080;28;19962;-59
2022/07/09 13:34:50;;;;;;;;;;;666.50;1868.80;;;;;;5093199;28;20421;-59
2022/07/09 13:37:15;;;;;;;;;;;691.30;1843.20;;;;;;5092856;28;19950;-58
2022/07/09 13:39:41;;;;;;;;;;;691.40;1792.00;;;;;;5092963;28;19966;-59